EFW584Y LIBD-EGKK
Flight info
| Callsign | EFW584Y |
|---|---|
| Flight time | 2h 29m |
| Altitude | 18000 |
| Route | PISIP6Z PISIP L612 VIE/N0454F360 DCT LANLI DCT RESIA DCT ELMUR DCT RIPUS DCT DITON DCT HOC DCT LUL DCT RLP DCT ROTSI DCT KOTUN DCT NINAL DCT KESAX DCT KUNAV KUNAV1G |
| Aircraft | A320/M-SDE3FGIJ1KRWXY/S |
Departure
| Time | 2026-05-08 18:09 |
|---|---|
| Airport | Bari Karol Wojtyła International Airport (LIBD) |
Arrival
| Time | 2026-05-08 20:39 |
|---|---|
| Airport | London Gatwick Airport (EGKK) |
| Time | Latitude | Longitude | Altitude | Speed | Heading |
|---|---|---|---|---|---|
| 2026-05-08 17:14 | 41.13492 | 16.76239 | 136 ft | 0 kts | 159° |
| 2026-05-08 18:01 | 41.13494 | 16.76238 | 136 ft | 3 kts | 159° |
| 2026-05-08 18:02 | 41.13519 | 16.76225 | 136 ft | 4 kts | 159° |
| 2026-05-08 18:02 | 41.13528 | 16.76221 | 136 ft | 0 kts | 159° |
| 2026-05-08 18:04 | 41.13526 | 16.76220 | 136 ft | 1 kts | 171° |
| 2026-05-08 18:04 | 41.13528 | 16.76202 | 136 ft | 5 kts | 288° |
| 2026-05-08 18:05 | 41.13544 | 16.76154 | 136 ft | 6 kts | 294° |
| 2026-05-08 18:05 | 41.13574 | 16.76092 | 136 ft | 10 kts | 320° |
| 2026-05-08 18:05 | 41.13639 | 16.75999 | 136 ft | 16 kts | 287° |
| 2026-05-08 18:05 | 41.13608 | 16.75855 | 137 ft | 17 kts | 248° |
| 2026-05-08 18:06 | 41.13563 | 16.75700 | 138 ft | 20 kts | 249° |
| 2026-05-08 18:06 | 41.13511 | 16.75519 | 142 ft | 20 kts | 248° |
| 2026-05-08 18:06 | 41.13460 | 16.75341 | 142 ft | 22 kts | 250° |
| 2026-05-08 18:06 | 41.13407 | 16.75153 | 146 ft | 21 kts | 249° |
| 2026-05-08 18:07 | 41.13356 | 16.74969 | 147 ft | 22 kts | 250° |
| 2026-05-08 18:07 | 41.13300 | 16.74773 | 148 ft | 23 kts | 249° |
| 2026-05-08 18:07 | 41.13243 | 16.74576 | 152 ft | 23 kts | 250° |
| 2026-05-08 18:07 | 41.13186 | 16.74375 | 154 ft | 24 kts | 248° |
| 2026-05-08 18:08 | 41.13200 | 16.74168 | 148 ft | 26 kts | 302° |
| 2026-05-08 18:08 | 41.13316 | 16.74161 | 147 ft | 10 kts | 80° |
| 2026-05-08 18:08 | 41.13365 | 16.74342 | 146 ft | 48 kts | 71° |
| 2026-05-08 18:08 | 41.13564 | 16.75039 | 138 ft | 110 kts | 71° |
| 2026-05-08 18:09 | 41.13882 | 16.76165 | 132 ft | 153 kts | 69° |
| 2026-05-08 18:09 | 41.14298 | 16.77633 | 322 ft | 173 kts | 69° |
| 2026-05-08 18:09 | 41.14707 | 16.79115 | 998 ft | 169 kts | 68° |
| 2026-05-08 18:09 | 41.15097 | 16.80572 | 1566 ft | 175 kts | 68° |
| 2026-05-08 18:10 | 41.15548 | 16.82177 | 1855 ft | 196 kts | 68° |
| 2026-05-08 18:10 | 41.16073 | 16.83962 | 2129 ft | 220 kts | 68° |
| 2026-05-08 18:10 | 41.16651 | 16.85938 | 2645 ft | 236 kts | 68° |
| 2026-05-08 18:10 | 41.17228 | 16.87991 | 3476 ft | 239 kts | 69° |
| 2026-05-08 18:11 | 41.17797 | 16.90089 | 4288 ft | 244 kts | 68° |
| 2026-05-08 18:11 | 41.18724 | 16.91946 | 5080 ft | 248 kts | 38° |
| 2026-05-08 18:11 | 41.20291 | 16.92972 | 5794 ft | 257 kts | 21° |
| 2026-05-08 18:11 | 41.21991 | 16.93784 | 6594 ft | 260 kts | 20° |
| 2026-05-08 18:12 | 41.23607 | 16.94551 | 7889 ft | 237 kts | 19° |
| 2026-05-08 18:12 | 41.25111 | 16.95266 | 8975 ft | 228 kts | 14° |
| 2026-05-08 18:12 | 41.26712 | 16.95379 | 9411 ft | 239 kts | 345° |
| 2026-05-08 18:12 | 41.28250 | 16.94341 | 9721 ft | 259 kts | 323° |
| 2026-05-08 18:13 | 41.29789 | 16.92930 | 10090 ft | 277 kts | 327° |
| 2026-05-08 18:13 | 41.31496 | 16.91515 | 10288 ft | 301 kts | 328° |
| 2026-05-08 18:13 | 41.33361 | 16.90028 | 10446 ft | 323 kts | 329° |
| 2026-05-08 18:13 | 41.35322 | 16.88468 | 10910 ft | 333 kts | 328° |
| 2026-05-08 18:14 | 41.37312 | 16.86825 | 11520 ft | 338 kts | 323° |
| 2026-05-08 18:14 | 41.39067 | 16.84729 | 12142 ft | 342 kts | 311° |
| 2026-05-08 18:14 | 41.40653 | 16.82344 | 12767 ft | 346 kts | 310° |
| 2026-05-08 18:14 | 41.42248 | 16.79930 | 13403 ft | 350 kts | 310° |
| 2026-05-08 18:15 | 41.43864 | 16.77476 | 14001 ft | 354 kts | 310° |
| 2026-05-08 18:15 | 41.45496 | 16.74995 | 14561 ft | 357 kts | 310° |
| 2026-05-08 18:15 | 41.47142 | 16.72498 | 15128 ft | 360 kts | 310° |
| 2026-05-08 18:15 | 41.48804 | 16.69977 | 15709 ft | 363 kts | 310° |
| 2026-05-08 18:16 | 41.50474 | 16.67445 | 16288 ft | 365 kts | 309° |
| 2026-05-08 18:16 | 41.52161 | 16.64890 | 16871 ft | 367 kts | 309° |
| 2026-05-08 18:16 | 41.53854 | 16.62324 | 17457 ft | 370 kts | 309° |
| 2026-05-08 18:16 | 41.55561 | 16.59730 | 18036 ft | 373 kts | 309° |
| 2026-05-08 18:17 | 41.57275 | 16.57117 | 18603 ft | 376 kts | 309° |
| 2026-05-08 18:17 | 41.59008 | 16.54480 | 19146 ft | 378 kts | 309° |
| 2026-05-08 18:17 | 41.60751 | 16.51829 | 19700 ft | 381 kts | 309° |
| 2026-05-08 18:17 | 41.62501 | 16.49166 | 20272 ft | 383 kts | 309° |
| 2026-05-08 18:18 | 41.64264 | 16.46482 | 20823 ft | 385 kts | 309° |
| 2026-05-08 18:18 | 41.66036 | 16.43779 | 21351 ft | 387 kts | 309° |
| 2026-05-08 18:18 | 41.67812 | 16.41060 | 21876 ft | 389 kts | 309° |
| 2026-05-08 18:18 | 41.69598 | 16.38326 | 22377 ft | 391 kts | 308° |
| 2026-05-08 18:19 | 41.71371 | 16.35606 | 22865 ft | 394 kts | 308° |
| 2026-05-08 18:19 | 41.73175 | 16.32836 | 23349 ft | 396 kts | 308° |
| 2026-05-08 18:19 | 41.75011 | 16.30014 | 23792 ft | 398 kts | 308° |
| 2026-05-08 18:19 | 41.76809 | 16.27251 | 24198 ft | 399 kts | 308° |
| 2026-05-08 18:20 | 41.78645 | 16.24425 | 24624 ft | 399 kts | 308° |
| 2026-05-08 18:20 | 41.80453 | 16.21637 | 25036 ft | 400 kts | 308° |
| 2026-05-08 18:20 | 41.82279 | 16.18820 | 25452 ft | 400 kts | 308° |
| 2026-05-08 18:20 | 41.84107 | 16.15999 | 25853 ft | 401 kts | 308° |
| 2026-05-08 18:21 | 41.85936 | 16.13176 | 26262 ft | 401 kts | 308° |
| 2026-05-08 18:21 | 41.87766 | 16.10346 | 26660 ft | 402 kts | 308° |
| 2026-05-08 18:21 | 41.89598 | 16.07508 | 27053 ft | 402 kts | 308° |
| 2026-05-08 18:21 | 41.91457 | 16.04631 | 27456 ft | 403 kts | 308° |
| 2026-05-08 18:22 | 41.93366 | 16.01862 | 27859 ft | 405 kts | 311° |
| 2026-05-08 18:22 | 41.95325 | 15.99216 | 28247 ft | 406 kts | 312° |
| 2026-05-08 18:22 | 41.97359 | 15.96569 | 28625 ft | 407 kts | 313° |
| 2026-05-08 18:22 | 41.99395 | 15.93943 | 29109 ft | 405 kts | 312° |
| 2026-05-08 18:23 | 42.01412 | 15.91325 | 29683 ft | 401 kts | 312° |
| 2026-05-08 18:23 | 42.03396 | 15.88723 | 30246 ft | 397 kts | 311° |
| 2026-05-08 18:23 | 42.05352 | 15.86122 | 30709 ft | 394 kts | 311° |
| 2026-05-08 18:23 | 42.07290 | 15.83519 | 31125 ft | 393 kts | 311° |
| 2026-05-08 18:24 | 42.09217 | 15.80912 | 31523 ft | 392 kts | 311° |
| 2026-05-08 18:24 | 42.11135 | 15.78309 | 31921 ft | 391 kts | 311° |
| 2026-05-08 18:24 | 42.13052 | 15.75708 | 32317 ft | 391 kts | 311° |
| 2026-05-08 18:24 | 42.14966 | 15.73116 | 32714 ft | 390 kts | 311° |
| 2026-05-08 18:25 | 42.16881 | 15.70530 | 33116 ft | 389 kts | 311° |
| 2026-05-08 18:25 | 42.18792 | 15.67951 | 33505 ft | 389 kts | 311° |
| 2026-05-08 18:25 | 42.20701 | 15.65373 | 33895 ft | 388 kts | 311° |
| 2026-05-08 18:25 | 42.22613 | 15.62791 | 34250 ft | 388 kts | 311° |
| 2026-05-08 18:26 | 42.24519 | 15.60214 | 34546 ft | 388 kts | 310° |
| 2026-05-08 18:26 | 42.26419 | 15.57639 | 34826 ft | 388 kts | 310° |
| 2026-05-08 18:26 | 42.28323 | 15.55049 | 35104 ft | 388 kts | 310° |
| 2026-05-08 18:26 | 42.30228 | 15.52453 | 35362 ft | 389 kts | 310° |
| 2026-05-08 18:27 | 42.32134 | 15.49856 | 35625 ft | 389 kts | 310° |
| 2026-05-08 18:27 | 42.33393 | 15.48143 | 35791 ft | 389 kts | 310° |
| 2026-05-08 18:27 | 42.35959 | 15.44655 | 36025 ft | 391 kts | 310° |
| 2026-05-08 18:27 | 42.37883 | 15.42034 | 36056 ft | 397 kts | 310° |
| 2026-05-08 18:28 | 42.41810 | 15.36669 | 36055 ft | 403 kts | 310° |
| 2026-05-08 18:28 | 42.45763 | 15.31263 | 36059 ft | 404 kts | 310° |
| 2026-05-08 18:29 | 42.49724 | 15.25832 | 36060 ft | 405 kts | 310° |
| 2026-05-08 18:29 | 42.53683 | 15.20400 | 36059 ft | 405 kts | 310° |
| 2026-05-08 18:30 | 42.57645 | 15.14955 | 36063 ft | 406 kts | 310° |
| 2026-05-08 18:30 | 42.60938 | 15.10413 | 36068 ft | 406 kts | 310° |
| 2026-05-08 18:31 | 42.65546 | 15.04049 | 36075 ft | 407 kts | 310° |
| 2026-05-08 18:31 | 42.68869 | 14.99453 | 36074 ft | 407 kts | 310° |
| 2026-05-08 18:32 | 42.72834 | 14.93956 | 36081 ft | 407 kts | 310° |
| 2026-05-08 18:32 | 42.76784 | 14.88460 | 36078 ft | 407 kts | 310° |
| 2026-05-08 18:33 | 42.80750 | 14.82945 | 36081 ft | 407 kts | 310° |
| 2026-05-08 18:33 | 42.84707 | 14.77434 | 36084 ft | 407 kts | 310° |
| 2026-05-08 18:34 | 42.88664 | 14.71898 | 36085 ft | 407 kts | 310° |
| 2026-05-08 18:34 | 42.92592 | 14.66397 | 36087 ft | 407 kts | 310° |
| 2026-05-08 18:35 | 42.96550 | 14.60855 | 36092 ft | 407 kts | 310° |
| 2026-05-08 18:35 | 43.00494 | 14.55304 | 36093 ft | 407 kts | 310° |
| 2026-05-08 18:36 | 43.04440 | 14.49748 | 36091 ft | 407 kts | 310° |
| 2026-05-08 18:36 | 43.08381 | 14.44187 | 36090 ft | 407 kts | 310° |
| 2026-05-08 18:37 | 43.12325 | 14.38620 | 36092 ft | 407 kts | 309° |
| 2026-05-08 18:37 | 43.16264 | 14.33040 | 36089 ft | 407 kts | 309° |
| 2026-05-08 18:38 | 43.20196 | 14.27461 | 36090 ft | 407 kts | 309° |
| 2026-05-08 18:38 | 43.24121 | 14.21878 | 36092 ft | 407 kts | 309° |
| 2026-05-08 18:39 | 43.28040 | 14.16282 | 36093 ft | 407 kts | 309° |
| 2026-05-08 18:39 | 43.31963 | 14.10685 | 36083 ft | 407 kts | 309° |
| 2026-05-08 18:40 | 43.35879 | 14.05086 | 36092 ft | 406 kts | 309° |
| 2026-05-08 18:40 | 43.39795 | 13.99483 | 36090 ft | 406 kts | 309° |
| 2026-05-08 18:41 | 43.43705 | 13.93873 | 36097 ft | 406 kts | 309° |
| 2026-05-08 18:41 | 43.47584 | 13.88290 | 36082 ft | 406 kts | 309° |
| 2026-05-08 18:42 | 43.51481 | 13.82671 | 36091 ft | 406 kts | 309° |
| 2026-05-08 18:42 | 43.55376 | 13.77037 | 36087 ft | 406 kts | 309° |
| 2026-05-08 18:43 | 43.59272 | 13.71389 | 36081 ft | 406 kts | 309° |
| 2026-05-08 18:43 | 43.63166 | 13.65736 | 36084 ft | 407 kts | 309° |
| 2026-05-08 18:44 | 43.67063 | 13.60074 | 36086 ft | 407 kts | 309° |
| 2026-05-08 18:44 | 43.70961 | 13.54398 | 36086 ft | 407 kts | 309° |
| 2026-05-08 18:45 | 43.74846 | 13.48729 | 36084 ft | 406 kts | 309° |
| 2026-05-08 18:45 | 43.78729 | 13.43047 | 36082 ft | 406 kts | 309° |
| 2026-05-08 18:46 | 43.82617 | 13.37351 | 36084 ft | 407 kts | 309° |
| 2026-05-08 18:46 | 43.86498 | 13.31648 | 36085 ft | 407 kts | 309° |
| 2026-05-08 18:47 | 43.90376 | 13.25943 | 36087 ft | 407 kts | 309° |
| 2026-05-08 18:47 | 43.94256 | 13.20212 | 36088 ft | 407 kts | 309° |
| 2026-05-08 18:48 | 43.98409 | 13.14907 | 36087 ft | 410 kts | 315° |
| 2026-05-08 18:48 | 44.02776 | 13.09796 | 36087 ft | 410 kts | 315° |
| 2026-05-08 18:49 | 44.07159 | 13.04637 | 36090 ft | 410 kts | 315° |
| 2026-05-08 18:49 | 44.11509 | 12.99496 | 36088 ft | 411 kts | 315° |
| 2026-05-08 18:50 | 44.15868 | 12.94350 | 36081 ft | 411 kts | 315° |
| 2026-05-08 18:50 | 44.20225 | 12.89202 | 36080 ft | 411 kts | 315° |
| 2026-05-08 18:51 | 44.24582 | 12.84033 | 36075 ft | 411 kts | 315° |
| 2026-05-08 18:51 | 44.28946 | 12.78860 | 36081 ft | 412 kts | 315° |
| 2026-05-08 18:52 | 44.33278 | 12.73707 | 36084 ft | 412 kts | 315° |
| 2026-05-08 18:52 | 44.37634 | 12.68506 | 36082 ft | 412 kts | 315° |
| 2026-05-08 18:53 | 44.41995 | 12.63290 | 36080 ft | 412 kts | 315° |
| 2026-05-08 18:53 | 44.46348 | 12.58066 | 36079 ft | 412 kts | 315° |
| 2026-05-08 18:54 | 44.50706 | 12.52842 | 36079 ft | 412 kts | 315° |
| 2026-05-08 18:54 | 44.55056 | 12.47610 | 36077 ft | 413 kts | 315° |
| 2026-05-08 18:55 | 44.61584 | 12.39751 | 36072 ft | 413 kts | 315° |
| 2026-05-08 18:56 | 44.65944 | 12.34481 | 36070 ft | 413 kts | 315° |
| 2026-05-08 18:56 | 44.70293 | 12.29202 | 36074 ft | 413 kts | 315° |
| 2026-05-08 18:57 | 44.74641 | 12.23925 | 36070 ft | 413 kts | 315° |
| 2026-05-08 18:57 | 44.78992 | 12.18632 | 36073 ft | 414 kts | 315° |
| 2026-05-08 18:58 | 44.83318 | 12.13354 | 36072 ft | 414 kts | 315° |
| 2026-05-08 18:58 | 44.87662 | 12.08044 | 36070 ft | 414 kts | 315° |
| 2026-05-08 18:59 | 44.92018 | 12.02715 | 36066 ft | 414 kts | 315° |
| 2026-05-08 18:59 | 44.96376 | 11.97380 | 36066 ft | 415 kts | 315° |
| 2026-05-08 19:00 | 45.00735 | 11.92034 | 36060 ft | 415 kts | 315° |
| 2026-05-08 19:00 | 45.05089 | 11.86672 | 36059 ft | 415 kts | 315° |
| 2026-05-08 19:01 | 45.09438 | 11.81300 | 36063 ft | 415 kts | 315° |
| 2026-05-08 19:01 | 45.13794 | 11.75914 | 36072 ft | 416 kts | 315° |
| 2026-05-08 19:02 | 45.18153 | 11.70513 | 36070 ft | 416 kts | 315° |
| 2026-05-08 19:02 | 45.22511 | 11.65095 | 36069 ft | 417 kts | 315° |
| 2026-05-08 19:03 | 45.26870 | 11.59674 | 36070 ft | 417 kts | 315° |
| 2026-05-08 19:03 | 45.31241 | 11.54235 | 36068 ft | 418 kts | 315° |
| 2026-05-08 19:04 | 45.35602 | 11.48785 | 36065 ft | 418 kts | 315° |
| 2026-05-08 19:04 | 45.39971 | 11.43311 | 36070 ft | 418 kts | 315° |
| 2026-05-08 19:05 | 45.44303 | 11.37869 | 36072 ft | 418 kts | 315° |
| 2026-05-08 19:05 | 45.48664 | 11.32373 | 36075 ft | 419 kts | 315° |
| 2026-05-08 19:06 | 45.53021 | 11.26876 | 36077 ft | 419 kts | 315° |
| 2026-05-08 19:06 | 45.57393 | 11.21361 | 36084 ft | 419 kts | 315° |
| 2026-05-08 19:07 | 45.61760 | 11.15848 | 36083 ft | 419 kts | 315° |
| 2026-05-08 19:07 | 45.66124 | 11.10309 | 36079 ft | 419 kts | 315° |
| 2026-05-08 19:08 | 45.69035 | 11.06600 | 36080 ft | 419 kts | 315° |
| 2026-05-08 19:08 | 45.74833 | 10.99205 | 36096 ft | 419 kts | 315° |
| 2026-05-08 19:09 | 45.79185 | 10.93648 | 36094 ft | 419 kts | 315° |
| 2026-05-08 19:09 | 45.83537 | 10.88080 | 36097 ft | 420 kts | 315° |
| 2026-05-08 19:10 | 45.87885 | 10.82498 | 36095 ft | 419 kts | 315° |
| 2026-05-08 19:10 | 45.92228 | 10.76915 | 36096 ft | 419 kts | 315° |
| 2026-05-08 19:11 | 45.96570 | 10.71324 | 36102 ft | 419 kts | 315° |
| 2026-05-08 19:11 | 46.00911 | 10.65722 | 36107 ft | 419 kts | 315° |
| 2026-05-08 19:12 | 46.05249 | 10.60109 | 36108 ft | 419 kts | 315° |
| 2026-05-08 19:12 | 46.09572 | 10.54498 | 36110 ft | 419 kts | 315° |
| 2026-05-08 19:13 | 46.13905 | 10.48871 | 36113 ft | 419 kts | 315° |
| 2026-05-08 19:13 | 46.18241 | 10.43238 | 36115 ft | 419 kts | 315° |
| 2026-05-08 19:14 | 46.22567 | 10.37584 | 36115 ft | 419 kts | 314° |
| 2026-05-08 19:14 | 46.26879 | 10.31932 | 36116 ft | 419 kts | 315° |
| 2026-05-08 19:15 | 46.31194 | 10.26281 | 36115 ft | 418 kts | 315° |
| 2026-05-08 19:15 | 46.35477 | 10.20651 | 36124 ft | 418 kts | 315° |
| 2026-05-08 19:16 | 46.39778 | 10.14972 | 36138 ft | 419 kts | 314° |
| 2026-05-08 19:16 | 46.44085 | 10.09287 | 36148 ft | 419 kts | 314° |
| 2026-05-08 19:17 | 46.48332 | 10.03520 | 36158 ft | 417 kts | 309° |
| 2026-05-08 19:17 | 46.52165 | 9.97219 | 36157 ft | 416 kts | 309° |
| 2026-05-08 19:18 | 46.55987 | 9.90915 | 36154 ft | 416 kts | 309° |
| 2026-05-08 19:18 | 46.59818 | 9.84612 | 36153 ft | 416 kts | 309° |
| 2026-05-08 19:19 | 46.62997 | 9.79361 | 36152 ft | 416 kts | 308° |
| 2026-05-08 19:19 | 46.67448 | 9.71978 | 36143 ft | 416 kts | 308° |
| 2026-05-08 19:20 | 46.70621 | 9.66709 | 36123 ft | 415 kts | 309° |
| 2026-05-08 19:20 | 46.74424 | 9.60387 | 36111 ft | 415 kts | 308° |
| 2026-05-08 19:21 | 46.78223 | 9.54045 | 36097 ft | 415 kts | 308° |
| 2026-05-08 19:21 | 46.82014 | 9.47702 | 36086 ft | 415 kts | 308° |
| 2026-05-08 19:22 | 46.85818 | 9.41342 | 36079 ft | 415 kts | 308° |
| 2026-05-08 19:22 | 46.89586 | 9.35005 | 36078 ft | 415 kts | 308° |
| 2026-05-08 19:23 | 46.93370 | 9.28623 | 36076 ft | 415 kts | 308° |
| 2026-05-08 19:23 | 46.97159 | 9.22234 | 36076 ft | 415 kts | 308° |
| 2026-05-08 19:24 | 47.00941 | 9.15841 | 36072 ft | 415 kts | 308° |
| 2026-05-08 19:24 | 47.04721 | 9.09438 | 36075 ft | 415 kts | 308° |
| 2026-05-08 19:25 | 47.08468 | 9.03070 | 36073 ft | 415 kts | 308° |
| 2026-05-08 19:25 | 47.12232 | 8.96639 | 36069 ft | 415 kts | 308° |
| 2026-05-08 19:26 | 47.15698 | 8.89915 | 36068 ft | 411 kts | 296° |
| 2026-05-08 19:26 | 47.17872 | 8.82189 | 36063 ft | 409 kts | 289° |
| 2026-05-08 19:27 | 47.19865 | 8.74354 | 36066 ft | 409 kts | 289° |
| 2026-05-08 19:27 | 47.21855 | 8.66512 | 36066 ft | 409 kts | 289° |
| 2026-05-08 19:28 | 47.23842 | 8.58668 | 36064 ft | 409 kts | 289° |
| 2026-05-08 19:28 | 47.25818 | 8.50822 | 36065 ft | 409 kts | 289° |
| 2026-05-08 19:29 | 47.27795 | 8.42972 | 36064 ft | 409 kts | 289° |
| 2026-05-08 19:29 | 47.29764 | 8.35128 | 36059 ft | 408 kts | 289° |
| 2026-05-08 19:30 | 47.31723 | 8.27286 | 36057 ft | 408 kts | 289° |
| 2026-05-08 19:30 | 47.33669 | 8.19430 | 36055 ft | 408 kts | 289° |
| 2026-05-08 19:31 | 47.35620 | 8.11574 | 36047 ft | 408 kts | 289° |
| 2026-05-08 19:31 | 47.37561 | 8.03724 | 36043 ft | 407 kts | 289° |
| 2026-05-08 19:32 | 47.39491 | 7.95864 | 36039 ft | 407 kts | 289° |
| 2026-05-08 19:32 | 47.41422 | 7.88023 | 36037 ft | 407 kts | 289° |
| 2026-05-08 19:33 | 47.43347 | 7.80137 | 36037 ft | 407 kts | 288° |
| 2026-05-08 19:33 | 47.45696 | 7.72556 | 36034 ft | 409 kts | 301° |
| 2026-05-08 19:34 | 47.48854 | 7.65605 | 36029 ft | 410 kts | 301° |
| 2026-05-08 19:34 | 47.52029 | 7.58622 | 36032 ft | 410 kts | 301° |
| 2026-05-08 19:35 | 47.55206 | 7.51603 | 36037 ft | 410 kts | 301° |
| 2026-05-08 19:35 | 47.58364 | 7.44586 | 36035 ft | 410 kts | 301° |
| 2026-05-08 19:36 | 47.61518 | 7.37548 | 36057 ft | 410 kts | 301° |
| 2026-05-08 19:36 | 47.64674 | 7.30503 | 36052 ft | 410 kts | 301° |
| 2026-05-08 19:37 | 47.67828 | 7.23461 | 36054 ft | 410 kts | 301° |
| 2026-05-08 19:37 | 47.70977 | 7.16406 | 36051 ft | 410 kts | 301° |
| 2026-05-08 19:38 | 47.74123 | 7.09330 | 36051 ft | 410 kts | 301° |
| 2026-05-08 19:38 | 47.77251 | 7.02254 | 36050 ft | 410 kts | 301° |
| 2026-05-08 19:39 | 47.80389 | 6.95160 | 36054 ft | 410 kts | 301° |
| 2026-05-08 19:39 | 47.83523 | 6.88080 | 36052 ft | 410 kts | 301° |
| 2026-05-08 19:40 | 47.86656 | 6.80971 | 36060 ft | 411 kts | 301° |
| 2026-05-08 19:40 | 47.89779 | 6.73856 | 36064 ft | 411 kts | 301° |
| 2026-05-08 19:41 | 47.92904 | 6.66723 | 36060 ft | 411 kts | 301° |
| 2026-05-08 19:41 | 47.96024 | 6.59579 | 36065 ft | 411 kts | 301° |
| 2026-05-08 19:42 | 47.99137 | 6.52432 | 36061 ft | 411 kts | 301° |
| 2026-05-08 19:42 | 48.02240 | 6.45269 | 36061 ft | 411 kts | 301° |
| 2026-05-08 19:43 | 48.05342 | 6.38107 | 36065 ft | 411 kts | 301° |
| 2026-05-08 19:43 | 48.08442 | 6.30937 | 36062 ft | 411 kts | 301° |
| 2026-05-08 19:44 | 48.11535 | 6.23769 | 36062 ft | 410 kts | 301° |
| 2026-05-08 19:44 | 48.14625 | 6.16580 | 36062 ft | 410 kts | 301° |
| 2026-05-08 19:45 | 48.17702 | 6.09385 | 36064 ft | 410 kts | 301° |
| 2026-05-08 19:45 | 48.20777 | 6.02199 | 36065 ft | 410 kts | 301° |
| 2026-05-08 19:46 | 48.23333 | 5.96223 | 36068 ft | 410 kts | 301° |
| 2026-05-08 19:46 | 48.28445 | 5.84177 | 36065 ft | 410 kts | 301° |
| 2026-05-08 19:47 | 48.31504 | 5.76949 | 36064 ft | 410 kts | 301° |
| 2026-05-08 19:47 | 48.34543 | 5.69760 | 36071 ft | 410 kts | 301° |
| 2026-05-08 19:48 | 48.37617 | 5.62472 | 36069 ft | 410 kts | 301° |
| 2026-05-08 19:48 | 48.40647 | 5.55254 | 36072 ft | 410 kts | 301° |
| 2026-05-08 19:49 | 48.43684 | 5.47997 | 36072 ft | 410 kts | 301° |
| 2026-05-08 19:49 | 48.46725 | 5.40723 | 36068 ft | 410 kts | 301° |
| 2026-05-08 19:50 | 48.49758 | 5.33448 | 36071 ft | 410 kts | 301° |
| 2026-05-08 19:50 | 48.52789 | 5.26160 | 36069 ft | 410 kts | 301° |
| 2026-05-08 19:51 | 48.55811 | 5.18860 | 36067 ft | 411 kts | 301° |
| 2026-05-08 19:51 | 48.58831 | 5.11540 | 36068 ft | 411 kts | 301° |
| 2026-05-08 19:52 | 48.61857 | 5.04208 | 36062 ft | 411 kts | 301° |
| 2026-05-08 19:52 | 48.64874 | 4.96883 | 36067 ft | 411 kts | 301° |
| 2026-05-08 19:53 | 48.67886 | 4.89538 | 36066 ft | 411 kts | 301° |
| 2026-05-08 19:53 | 48.70897 | 4.82170 | 36068 ft | 411 kts | 301° |
| 2026-05-08 19:54 | 48.73897 | 4.74806 | 36070 ft | 411 kts | 301° |
| 2026-05-08 19:54 | 48.76898 | 4.67431 | 36076 ft | 411 kts | 301° |
| 2026-05-08 19:55 | 48.79895 | 4.60046 | 36081 ft | 412 kts | 301° |
| 2026-05-08 19:55 | 48.82895 | 4.52629 | 36079 ft | 412 kts | 301° |
| 2026-05-08 19:56 | 48.85888 | 4.45214 | 36077 ft | 412 kts | 301° |
| 2026-05-08 19:56 | 48.88877 | 4.37776 | 36076 ft | 412 kts | 301° |
| 2026-05-08 19:57 | 48.91833 | 4.30395 | 36075 ft | 412 kts | 301° |
| 2026-05-08 19:57 | 48.94831 | 4.22902 | 36073 ft | 412 kts | 301° |
| 2026-05-08 19:58 | 48.97808 | 4.15452 | 36075 ft | 412 kts | 301° |
| 2026-05-08 19:58 | 49.00755 | 4.08039 | 36073 ft | 412 kts | 301° |
| 2026-05-08 19:59 | 49.03722 | 4.00563 | 36073 ft | 412 kts | 301° |
| 2026-05-08 19:59 | 49.06702 | 3.93024 | 36071 ft | 413 kts | 301° |
| 2026-05-08 20:00 | 49.09637 | 3.85574 | 36070 ft | 413 kts | 301° |
| 2026-05-08 20:00 | 49.12589 | 3.78049 | 36072 ft | 413 kts | 301° |
| 2026-05-08 20:01 | 49.15562 | 3.70470 | 36079 ft | 413 kts | 301° |
| 2026-05-08 20:01 | 49.18514 | 3.62921 | 36087 ft | 414 kts | 301° |
| 2026-05-08 20:02 | 49.21443 | 3.55406 | 36089 ft | 414 kts | 301° |
| 2026-05-08 20:02 | 49.24408 | 3.47780 | 36088 ft | 415 kts | 301° |
| 2026-05-08 20:03 | 49.27336 | 3.40224 | 36083 ft | 415 kts | 301° |
| 2026-05-08 20:03 | 49.30295 | 3.32568 | 36088 ft | 415 kts | 301° |
| 2026-05-08 20:04 | 49.33204 | 3.25037 | 36086 ft | 416 kts | 301° |
| 2026-05-08 20:04 | 49.35664 | 3.18640 | 36092 ft | 416 kts | 301° |
| 2026-05-08 20:05 | 49.39069 | 3.09742 | 36089 ft | 416 kts | 301° |
| 2026-05-08 20:05 | 49.41526 | 3.03322 | 36093 ft | 416 kts | 301° |
| 2026-05-08 20:06 | 49.44449 | 2.95658 | 36097 ft | 416 kts | 301° |
| 2026-05-08 20:06 | 49.47344 | 2.88015 | 36096 ft | 416 kts | 301° |
| 2026-05-08 20:07 | 49.50256 | 2.80310 | 36093 ft | 417 kts | 301° |
| 2026-05-08 20:07 | 49.53175 | 2.72594 | 36096 ft | 417 kts | 301° |
| 2026-05-08 20:08 | 49.56088 | 2.64876 | 36102 ft | 417 kts | 301° |
| 2026-05-08 20:08 | 49.58998 | 2.57126 | 36094 ft | 417 kts | 301° |
| 2026-05-08 20:09 | 49.62300 | 2.49826 | 36091 ft | 417 kts | 310° |
| 2026-05-08 20:09 | 49.66068 | 2.43017 | 36096 ft | 417 kts | 310° |
| 2026-05-08 20:10 | 49.69826 | 2.36179 | 36094 ft | 417 kts | 310° |
| 2026-05-08 20:10 | 49.73580 | 2.29324 | 36088 ft | 418 kts | 310° |
| 2026-05-08 20:11 | 49.77336 | 2.22459 | 36092 ft | 418 kts | 310° |
| 2026-05-08 20:11 | 49.81085 | 2.15581 | 36085 ft | 418 kts | 309° |
| 2026-05-08 20:12 | 49.84825 | 2.08698 | 36096 ft | 418 kts | 309° |
| 2026-05-08 20:12 | 49.88573 | 2.01784 | 36098 ft | 419 kts | 309° |
| 2026-05-08 20:13 | 49.92318 | 1.94862 | 36093 ft | 419 kts | 309° |
| 2026-05-08 20:13 | 49.96062 | 1.87931 | 36093 ft | 419 kts | 309° |
| 2026-05-08 20:14 | 49.99798 | 1.81000 | 36104 ft | 418 kts | 309° |
| 2026-05-08 20:14 | 50.01671 | 1.77518 | 35354 ft | 423 kts | 309° |
| 2026-05-08 20:14 | 50.03571 | 1.73967 | 34259 ft | 432 kts | 309° |
| 2026-05-08 20:15 | 50.05506 | 1.70343 | 33168 ft | 437 kts | 309° |
| 2026-05-08 20:15 | 50.07544 | 1.66813 | 32152 ft | 440 kts | 316° |
| 2026-05-08 20:15 | 50.09846 | 1.63664 | 31338 ft | 439 kts | 318° |
| 2026-05-08 20:15 | 50.12143 | 1.60560 | 30517 ft | 438 kts | 318° |
| 2026-05-08 20:16 | 50.14437 | 1.57452 | 29746 ft | 435 kts | 318° |
| 2026-05-08 20:16 | 50.16720 | 1.54348 | 28957 ft | 433 kts | 318° |
| 2026-05-08 20:16 | 50.18967 | 1.51283 | 28425 ft | 425 kts | 318° |
| 2026-05-08 20:16 | 50.21176 | 1.48271 | 27858 ft | 419 kts | 318° |
| 2026-05-08 20:17 | 50.23326 | 1.45328 | 27312 ft | 414 kts | 318° |
| 2026-05-08 20:17 | 50.25479 | 1.42383 | 26770 ft | 409 kts | 318° |
| 2026-05-08 20:17 | 50.27607 | 1.39474 | 26234 ft | 405 kts | 318° |
| 2026-05-08 20:17 | 50.29725 | 1.36578 | 25715 ft | 401 kts | 318° |
| 2026-05-08 20:18 | 50.31812 | 1.33722 | 25210 ft | 398 kts | 318° |
| 2026-05-08 20:18 | 50.33890 | 1.30876 | 24719 ft | 395 kts | 318° |
| 2026-05-08 20:18 | 50.35948 | 1.28053 | 24241 ft | 393 kts | 319° |
| 2026-05-08 20:18 | 50.38001 | 1.25230 | 23778 ft | 391 kts | 319° |
| 2026-05-08 20:19 | 50.40066 | 1.22382 | 23262 ft | 389 kts | 318° |
| 2026-05-08 20:19 | 50.42092 | 1.19585 | 22812 ft | 386 kts | 318° |
| 2026-05-08 20:19 | 50.44096 | 1.16810 | 22357 ft | 383 kts | 318° |
| 2026-05-08 20:19 | 50.46084 | 1.14052 | 21923 ft | 380 kts | 318° |
| 2026-05-08 20:20 | 50.48061 | 1.11310 | 21444 ft | 378 kts | 317° |
| 2026-05-08 20:20 | 50.50024 | 1.08586 | 20988 ft | 375 kts | 317° |
| 2026-05-08 20:20 | 50.51931 | 1.05815 | 20511 ft | 372 kts | 312° |
| 2026-05-08 20:20 | 50.53687 | 1.02848 | 20046 ft | 370 kts | 311° |
| 2026-05-08 20:21 | 50.55435 | 0.99895 | 19557 ft | 368 kts | 311° |
| 2026-05-08 20:21 | 50.57180 | 0.96954 | 19083 ft | 367 kts | 311° |
| 2026-05-08 20:21 | 50.58920 | 0.94022 | 18583 ft | 367 kts | 311° |
| 2026-05-08 20:21 | 50.60662 | 0.91088 | 18050 ft | 366 kts | 311° |
| 2026-05-08 20:22 | 50.62399 | 0.88162 | 17544 ft | 364 kts | 311° |
| 2026-05-08 20:22 | 50.64118 | 0.85263 | 17057 ft | 361 kts | 311° |
| 2026-05-08 20:22 | 50.65824 | 0.82376 | 16570 ft | 359 kts | 311° |
| 2026-05-08 20:22 | 50.67517 | 0.79497 | 16081 ft | 357 kts | 310° |
| 2026-05-08 20:23 | 50.69154 | 0.76533 | 15365 ft | 361 kts | 308° |
| 2026-05-08 20:23 | 50.70743 | 0.73454 | 14655 ft | 364 kts | 307° |
| 2026-05-08 20:23 | 50.72317 | 0.70305 | 13938 ft | 368 kts | 307° |
| 2026-05-08 20:23 | 50.73884 | 0.67136 | 13435 ft | 362 kts | 307° |
| 2026-05-08 20:24 | 50.75426 | 0.64027 | 12856 ft | 359 kts | 307° |
| 2026-05-08 20:24 | 50.76967 | 0.60948 | 12295 ft | 355 kts | 307° |
| 2026-05-08 20:24 | 50.78483 | 0.57941 | 12060 ft | 343 kts | 308° |
| 2026-05-08 20:24 | 50.79949 | 0.55056 | 11926 ft | 329 kts | 308° |
| 2026-05-08 20:25 | 50.81356 | 0.52295 | 11794 ft | 317 kts | 308° |
| 2026-05-08 20:25 | 50.82713 | 0.49634 | 11673 ft | 306 kts | 308° |
| 2026-05-08 20:25 | 50.84030 | 0.47047 | 11435 ft | 299 kts | 308° |
| 2026-05-08 20:25 | 50.85325 | 0.44498 | 11127 ft | 296 kts | 308° |
| 2026-05-08 20:26 | 50.86611 | 0.41962 | 10801 ft | 294 kts | 307° |
| 2026-05-08 20:26 | 50.87626 | 0.39955 | 10542 ft | 293 kts | 308° |
| 2026-05-08 20:26 | 50.88917 | 0.37406 | 10215 ft | 291 kts | 308° |
| 2026-05-08 20:26 | 50.90177 | 0.34900 | 9873 ft | 289 kts | 307° |
| 2026-05-08 20:27 | 50.91421 | 0.32416 | 9552 ft | 286 kts | 307° |
| 2026-05-08 20:27 | 50.92641 | 0.29982 | 9341 ft | 280 kts | 307° |
| 2026-05-08 20:27 | 50.93850 | 0.27567 | 8957 ft | 280 kts | 307° |
| 2026-05-08 20:27 | 50.94789 | 0.24900 | 8598 ft | 277 kts | 284° |
| 2026-05-08 20:28 | 50.95142 | 0.21907 | 8225 ft | 277 kts | 277° |
| 2026-05-08 20:28 | 50.95392 | 0.18883 | 7866 ft | 276 kts | 276° |
| 2026-05-08 20:28 | 50.95625 | 0.15904 | 7528 ft | 276 kts | 276° |
| 2026-05-08 20:28 | 50.95861 | 0.12850 | 7180 ft | 274 kts | 276° |
| 2026-05-08 20:29 | 50.96089 | 0.09862 | 7104 ft | 274 kts | 276° |
| 2026-05-08 20:29 | 50.96316 | 0.06889 | 7116 ft | 276 kts | 276° |
| 2026-05-08 20:29 | 50.96547 | 0.03865 | 7111 ft | 276 kts | 276° |
| 2026-05-08 20:29 | 50.96780 | 0.00836 | 7115 ft | 276 kts | 276° |
| 2026-05-08 20:30 | 50.97014 | -0.02194 | 7115 ft | 276 kts | 276° |
| 2026-05-08 20:30 | 50.97248 | -0.05213 | 7110 ft | 276 kts | 276° |
| 2026-05-08 20:30 | 50.97483 | -0.08278 | 7045 ft | 275 kts | 276° |
| 2026-05-08 20:30 | 50.97709 | -0.11245 | 6716 ft | 274 kts | 276° |
| 2026-05-08 20:31 | 50.97936 | -0.14246 | 6374 ft | 274 kts | 276° |
| 2026-05-08 20:31 | 50.98161 | -0.17228 | 6020 ft | 273 kts | 276° |
| 2026-05-08 20:31 | 50.98647 | -0.20141 | 5670 ft | 273 kts | 293° |
| 2026-05-08 20:31 | 50.99454 | -0.22854 | 5327 ft | 273 kts | 296° |
| 2026-05-08 20:32 | 51.00297 | -0.25552 | 4989 ft | 272 kts | 296° |
| 2026-05-08 20:32 | 51.01140 | -0.28246 | 4659 ft | 271 kts | 296° |
| 2026-05-08 20:32 | 51.01976 | -0.30915 | 4318 ft | 270 kts | 296° |
| 2026-05-08 20:32 | 51.02798 | -0.33542 | 4026 ft | 268 kts | 296° |
| 2026-05-08 20:33 | 51.03616 | -0.36155 | 3895 ft | 259 kts | 296° |
| 2026-05-08 20:33 | 51.04404 | -0.38673 | 3773 ft | 250 kts | 296° |
| 2026-05-08 20:33 | 51.05164 | -0.41097 | 3644 ft | 241 kts | 296° |
| 2026-05-08 20:33 | 51.05895 | -0.43438 | 3522 ft | 232 kts | 296° |
| 2026-05-08 20:34 | 51.06797 | -0.45475 | 3385 ft | 222 kts | 322° |
| 2026-05-08 20:34 | 51.08142 | -0.46438 | 3334 ft | 205 kts | 354° |
| 2026-05-08 20:34 | 51.10648 | -0.45247 | 3297 ft | 189 kts | 46° |
| 2026-05-08 20:35 | 51.11370 | -0.43556 | 3091 ft | 183 kts | 72° |
| 2026-05-08 20:35 | 51.11667 | -0.41619 | 2866 ft | 178 kts | 79° |
| 2026-05-08 20:35 | 51.11933 | -0.39728 | 2630 ft | 174 kts | 79° |
| 2026-05-08 20:35 | 51.12193 | -0.37872 | 2406 ft | 170 kts | 78° |
| 2026-05-08 20:36 | 51.12449 | -0.36042 | 2179 ft | 168 kts | 79° |
| 2026-05-08 20:36 | 51.12700 | -0.34245 | 1958 ft | 164 kts | 78° |
| 2026-05-08 20:36 | 51.12945 | -0.32489 | 1735 ft | 161 kts | 78° |
| 2026-05-08 20:36 | 51.13187 | -0.30759 | 1509 ft | 159 kts | 78° |
| 2026-05-08 20:37 | 51.13423 | -0.29064 | 1293 ft | 155 kts | 78° |
| 2026-05-08 20:37 | 51.13646 | -0.27460 | 1111 ft | 141 kts | 78° |
| 2026-05-08 20:37 | 51.13853 | -0.25969 | 916 ft | 136 kts | 78° |
| 2026-05-08 20:37 | 51.14054 | -0.24520 | 736 ft | 133 kts | 78° |
| 2026-05-08 20:38 | 51.14253 | -0.23088 | 563 ft | 132 kts | 77° |
| 2026-05-08 20:38 | 51.14448 | -0.21664 | 377 ft | 131 kts | 77° |
| 2026-05-08 20:38 | 51.14650 | -0.20249 | 220 ft | 130 kts | 77° |
| 2026-05-08 20:38 | 51.14814 | -0.19040 | 217 ft | 88 kts | 78° |
| 2026-05-08 20:39 | 51.14910 | -0.18325 | 209 ft | 44 kts | 77° |
| 2026-05-08 20:39 | 51.14971 | -0.18002 | 209 ft | 28 kts | 65° |
| 2026-05-08 20:39 | 51.15079 | -0.17761 | 207 ft | 22 kts | 25° |
| 2026-05-08 20:39 | 51.15166 | -0.17770 | 211 ft | 7 kts | 353° |
| 2026-05-08 20:40 | 51.15182 | -0.17773 | 215 ft | 0 kts | 353° |
| 2026-05-08 20:40 | 51.15187 | -0.17774 | 214 ft | 3 kts | 353° |
| 2026-05-08 20:40 | 51.15222 | -0.17781 | 205 ft | 7 kts | 354° |
| 2026-05-08 20:40 | 51.15263 | -0.17732 | 205 ft | 9 kts | 71° |
| 2026-05-08 20:41 | 51.15279 | -0.17613 | 207 ft | 13 kts | 78° |
| 2026-05-08 20:41 | 51.15297 | -0.17465 | 208 ft | 14 kts | 81° |
| 2026-05-08 20:41 | 51.15346 | -0.17358 | 212 ft | 13 kts | 37° |
| 2026-05-08 20:41 | 51.15385 | -0.17213 | 205 ft | 16 kts | 73° |
| 2026-05-08 20:42 | 51.15417 | -0.17066 | 205 ft | 10 kts | 77° |
| 2026-05-08 20:42 | 51.15428 | -0.16982 | 205 ft | 7 kts | 75° |
| 2026-05-08 20:42 | 51.15446 | -0.16955 | 206 ft | 3 kts | 23° |
| 2026-05-08 20:42 | 51.15470 | -0.16962 | 205 ft | 2 kts | 348° |
| 2026-05-08 20:43 | 51.15486 | -0.16968 | 205 ft | 0 kts | 348° |